Time;durP1;ratioP1;P1;durP2;ratioP2;P2;SDS_P1;SDS_P2;PMS_P1;PMS_P2;Temp;Humidity;BMP_temperature;BMP_pressure;BME280_temperature;BME280_humidity;BME280_pressure;Samples;Min_cycle;Max_cycle;Signal;HPM_P1;HPM_P2
2022/11/22 00:00:15;;;;;;;5.67;4.57;;;;;;;5.30;100.00;94110.91;5139671;27;20192;-85
2022/11/22 00:02:41;;;;;;;5.50;4.33;;;;;;;5.32;100.00;94111.50;5145349;27;20207;-84
2022/11/22 00:05:08;;;;;;;6.17;4.80;;;;;;;5.20;100.00;94101.97;5142008;27;20211;-86
2022/11/22 00:07:37;;;;;;;6.90;5.27;;;;;;;5.01;100.00;94104.38;5139513;27;20592;-83
2022/11/22 00:10:05;;;;;;;6.60;5.10;;;;;;;5.02;100.00;94105.94;5136775;27;20282;-84
2022/11/22 00:12:32;;;;;;;8.47;5.47;;;;;;;4.94;100.00;94103.56;5143248;27;20558;-85
2022/11/22 00:14:59;;;;;;;6.93;5.00;;;;;;;4.95;100.00;94109.50;5140914;27;20194;-84
2022/11/22 00:17:26;;;;;;;5.87;4.50;;;;;;;5.01;100.00;94113.88;5148506;27;20188;-84
2022/11/22 00:19:52;;;;;;;5.43;4.40;;;;;;;4.94;100.00;94106.13;5136066;27;20257;-83
2022/11/22 00:22:19;;;;;;;4.83;4.10;;;;;;;5.02;100.00;94111.09;5133819;27;20193;-84
2022/11/22 00:24:50;;;;;;;6.00;4.50;;;;;;;5.07;100.00;94119.03;5136969;27;20224;-83
2022/11/22 00:27:16;;;;;;;4.33;3.93;;;;;;;4.96;100.00;94111.09;5140627;27;20196;-84
2022/11/22 00:29:43;;;;;;;5.20;4.23;;;;;;;4.86;100.00;94114.06;5143067;27;20211;-84
2022/11/22 00:32:10;;;;;;;4.57;4.00;;;;;;;4.90;100.00;94110.09;5140261;27;20204;-78
2022/11/22 00:34:37;;;;;;;5.30;4.23;;;;;;;4.86;100.00;94102.97;5139664;27;20203;-84
2022/11/22 00:37:03;;;;;;;4.77;4.27;;;;;;;4.98;100.00;94098.81;5138679;27;20242;-76
2022/11/22 00:39:30;;;;;;;4.80;4.07;;;;;;;5.01;100.00;94106.16;5134570;27;20201;-76
2022/11/22 00:41:58;;;;;;;4.67;4.00;;;;;;;4.95;100.00;94107.72;5130812;27;20203;-76
2022/11/22 00:44:25;;;;;;;5.27;4.10;;;;;;;4.87;100.00;94094.25;5135405;27;20249;-77
2022/11/22 00:46:52;;;;;;;4.97;4.17;;;;;;;4.96;100.00;94103.38;5130486;27;20234;-78
2022/11/22 00:49:19;;;;;;;5.50;4.53;;;;;;;5.09;100.00;94106.75;5132846;27;20197;-78
2022/11/22 00:51:46;;;;;;;5.90;4.43;;;;;;;5.19;100.00;94110.72;5131494;27;20211;-77
2022/11/22 00:54:12;;;;;;;5.30;4.27;;;;;;;5.29;100.00;94099.00;5136080;27;20207;-84
2022/11/22 00:56:39;;;;;;;5.30;4.50;;;;;;;5.43;100.00;94105.72;5136397;27;20198;-83
2022/11/22 00:59:07;;;;;;;7.33;4.50;;;;;;;5.46;100.00;94099.38;5133150;27;20204;-84
2022/11/22 01:01:34;;;;;;;6.50;4.50;;;;;;;5.41;100.00;94102.56;5135626;27;20255;-84
2022/11/22 01:04:01;;;;;;;5.17;4.17;;;;;;;5.34;100.00;94095.84;5140626;27;20261;-85
2022/11/22 01:06:28;;;;;;;5.43;4.37;;;;;;;5.32;100.00;94095.25;5143970;27;20232;-84
2022/11/22 01:08:54;;;;;;;4.67;4.13;;;;;;;5.15;100.00;94095.66;5149082;27;21131;-84
2022/11/22 01:11:21;;;;;;;5.43;4.13;;;;;;;5.19;100.00;94097.84;5139082;27;20728;-85
2022/11/22 01:13:48;;;;;;;4.77;4.07;;;;;;;5.04;100.00;94095.44;5132446;27;20603;-78
2022/11/22 01:16:16;;;;;;;4.00;3.60;;;;;;;5.04;100.00;94095.44;5136222;27;20196;-78
2022/11/22 01:18:44;;;;;;;4.30;3.90;;;;;;;5.13;100.00;94109.72;5137991;27;20199;-77
2022/11/22 01:21:11;;;;;;;5.70;4.27;;;;;;;4.99;100.00;94080.56;5136125;27;20662;-77
2022/11/22 01:23:38;;;;;;;5.43;4.20;;;;;;;5.10;100.00;94094.66;5136899;27;20716;-77
2022/11/22 01:26:07;;;;;;;5.00;4.00;;;;;;;5.08;100.00;94094.84;5136372;27;20197;-78
2022/11/22 01:28:34;;;;;;;5.60;4.17;;;;;;;4.98;100.00;94085.94;5136946;27;20304;-77
2022/11/22 01:31:01;;;;;;;5.33;4.13;;;;;;;5.13;100.00;94097.63;5136304;27;20196;-78
2022/11/22 01:33:29;;;;;;;4.90;4.03;;;;;;;5.08;100.00;94094.84;5135148;27;20659;-82
2022/11/22 01:35:57;;;;;;;4.63;3.90;;;;;;;5.12;100.00;94087.53;5146276;27;20200;-82
2022/11/22 01:38:24;;;;;;;5.60;4.30;;;;;;;5.16;100.00;94088.72;5136206;27;20233;-82
2022/11/22 01:40:51;;;;;;;4.80;4.00;;;;;;;5.27;100.00;94090.69;5145171;27;20248;-82
2022/11/22 01:43:20;;;;;;;4.97;4.20;;;;;;;5.33;100.00;94083.94;5148617;27;20200;-84
2022/11/22 01:45:50;;;;;;;5.00;4.20;;;;;;;5.39;100.00;94080.56;5140057;27;20211;-78
2022/11/22 01:48:37;;;;;;;6.80;4.30;;;;;;;5.27;100.00;94080.41;5136885;27;20206;-78
2022/11/22 01:51:14;;;;;;;4.60;4.07;;;;;;;5.27;100.00;94082.97;5141067;27;20200;-83
2022/11/22 01:53:41;;;;;;;5.20;4.13;;;;;;;5.27;100.00;94080.41;5146465;27;20655;-83
2022/11/22 01:56:12;;;;;;;5.13;4.43;;;;;;;5.22;100.00;94079.41;5142478;27;20201;-82
2022/11/22 01:58:43;;;;;;;6.07;4.63;;;;;;;5.28;100.00;94074.22;5140088;27;20247;-83
2022/11/22 02:01:10;;;;;;;6.60;4.83;;;;;;;5.33;100.00;94071.88;5143577;27;20654;-84
2022/11/22 02:03:41;;;;;;;5.40;4.50;;;;;;;5.29;100.00;94080.97;5142994;27;20279;-83
2022/11/22 02:06:08;;;;;;;6.53;5.00;;;;;;;5.21;100.00;94080.38;5141881;27;20268;-82
2022/11/22 02:08:40;;;;;;;5.57;4.47;;;;;;;5.17;100.00;94087.72;5147952;27;20681;-84
2022/11/22 02:11:09;;;;;;;7.07;5.43;;;;;;;5.21;100.00;94088.91;5135262;27;20278;-84
2022/11/22 02:13:40;;;;;;;8.57;5.30;;;;;;;5.22;100.00;94084.56;5140862;27;20197;-80
2022/11/22 02:16:07;;;;;;;7.77;5.73;;;;;;;5.12;100.00;94088.31;5135516;27;20204;-83
2022/11/22 02:18:36;;;;;;;8.00;6.03;;;;;;;5.07;100.00;94098.44;5133835;27;20203;-83
2022/11/22 02:21:05;;;;;;;9.03;5.93;;;;;;;5.00;100.00;94095.06;5135130;27;20200;-84
2022/11/22 02:23:39;;;;;;;9.60;6.20;;;;;;;5.11;100.00;94089.31;5138645;27;20200;-84
2022/11/22 02:26:08;;;;;;;8.30;6.27;;;;;;;5.09;100.00;94075.03;5137281;27;20196;-83
2022/11/22 02:28:37;;;;;;;8.87;6.23;;;;;;;4.91;100.00;94073.06;5137957;27;20220;-83
2022/11/22 02:31:04;;;;;;;9.13;5.90;;;;;;;4.83;100.00;94088.69;5135234;27;20192;-83
2022/11/22 02:33:31;;;;;;;7.83;5.53;;;;;;;4.68;100.00;94069.28;5143195;27;20191;-83
2022/11/22 02:35:58;;;;;;;8.43;6.47;;;;;;;4.70;100.00;94080.19;5135138;27;20195;-84
2022/11/22 02:38:27;;;;;;;9.07;6.43;;;;;;;4.69;100.00;94081.16;5145128;27;20215;-82
2022/11/22 02:40:58;;;;;;;9.00;6.20;;;;;;;4.70;100.00;94086.13;5138813;27;20204;-83
2022/11/22 02:43:29;;;;;;;9.50;6.07;;;;;;;4.51;100.00;94081.72;5135370;27;20622;-83
2022/11/22 02:45:56;;;;;;;8.07;5.80;;;;;;;4.39;100.00;94076.34;5147243;27;20212;-78
2022/11/22 02:48:23;;;;;;;14.33;6.07;;;;;;;4.31;100.00;94081.69;5132574;27;20220;-77
2022/11/22 02:50:50;;;;;;;7.90;6.20;;;;;;;4.24;100.00;94080.09;5133571;27;20646;-79
2022/11/22 02:53:16;;;;;;;9.63;6.20;;;;;;;4.15;100.00;94068.38;5134219;27;20187;-78
2022/11/22 02:55:43;;;;;;;8.90;6.30;;;;;;;4.03;100.00;94070.72;5135043;27;20199;-78
2022/11/22 02:58:10;;;;;;;11.93;6.90;;;;;;;4.13;100.00;94078.06;5133233;27;20249;-80
2022/11/22 03:00:38;;;;;;;12.07;7.27;;;;;;;4.10;100.00;94076.66;5133875;27;20202;-82
2022/11/22 03:03:05;;;;;;;9.47;6.40;;;;;;;4.16;100.00;94075.88;5143226;27;20231;-83
2022/11/22 03:05:32;;;;;;;12.53;6.80;;;;;;;4.17;100.00;94082.63;5134704;27;20192;-84
2022/11/22 03:07:59;;;;;;;10.97;7.13;;;;;;;3.96;100.00;94067.31;5138007;27;20211;-83
2022/11/22 03:10:26;;;;;;;8.87;6.43;;;;;;;4.00;100.00;94071.09;5146535;27;20247;-83
2022/11/22 03:12:53;;;;;;;9.77;6.80;;;;;;;4.05;100.00;94066.16;5149540;27;20223;-84
2022/11/22 03:15:20;;;;;;;9.70;6.33;;;;;;;4.08;100.00;94065.78;5148354;27;20210;-84
2022/11/22 03:17:48;;;;;;;9.40;6.20;;;;;;;4.10;100.00;94065.59;5140978;27;20661;-84
2022/11/22 03:20:15;;;;;;;10.83;7.73;;;;;;;4.12;100.00;94056.72;5145808;27;20206;-84
2022/11/22 03:22:42;;;;;;;10.70;7.70;;;;;;;4.14;100.00;94062.44;5139765;27;20202;-84
2022/11/22 03:25:09;;;;;;;11.97;8.80;;;;;;;4.16;100.00;94060.47;5138020;27;20227;-84
2022/11/22 03:27:36;;;;;;;14.00;8.63;;;;;;;4.16;100.00;94057.88;5142156;27;20211;-80
2022/11/22 03:30:03;;;;;;;12.73;8.93;;;;;;;4.15;100.00;94064.03;5140489;27;20243;-80
2022/11/22 03:32:30;;;;;;;12.00;9.03;;;;;;;4.19;100.00;94061.84;5139940;27;20658;-79
2022/11/22 03:34:58;;;;;;;11.30;7.30;;;;;;;4.18;100.00;94068.78;5132644;27;20199;-80
2022/11/22 03:37:25;;;;;;;9.63;7.30;;;;;;;4.25;100.00;94055.94;5133572;27;20656;-80
2022/11/22 03:39:52;;;;;;;12.57;7.90;;;;;;;4.27;100.00;94059.13;5133490;27;20203;-79
2022/11/22 03:42:19;;;;;;;10.63;7.60;;;;;;;4.28;100.00;94064.06;5137597;27;20199;-79
2022/11/22 03:44:45;;;;;;;11.27;7.77;;;;;;;4.30;100.00;94064.66;5136279;27;20196;-80
2022/11/22 03:47:12;;;;;;;11.60;8.50;;;;;;;4.32;100.00;94064.47;5141280;27;20215;-80
2022/11/22 03:49:39;;;;;;;11.90;8.00;;;;;;;4.11;100.00;94031.97;5141833;27;20188;-83
2022/11/22 03:52:07;;;;;;;15.63;8.40;;;;;;;4.26;100.00;94065.25;5139195;27;20298;-85
2022/11/22 03:54:34;;;;;;;11.87;7.30;;;;;;;4.18;100.00;94070.56;5147761;27;20194;-84
2022/11/22 03:57:01;;;;;;;8.80;7.03;;;;;;;4.10;100.00;94061.22;5148530;27;20205;-85
2022/11/22 03:59:28;;;;;;;9.77;7.17;;;;;;;4.08;100.00;94070.13;5145068;27;20282;-83
2022/11/22 04:01:55;;;;;;;11.53;7.00;;;;;;;4.10;100.00;94081.78;5137435;27;20688;-84
2022/11/22 04:04:22;;;;;;;8.87;6.77;;;;;;;4.09;100.00;94090.50;5135299;27;20207;-84
2022/11/22 04:06:48;;;;;;;9.40;7.00;;;;;;;4.04;100.00;94076.66;5138496;27;20195;-85
2022/11/22 04:09:17;;;;;;;9.70;6.97;;;;;;;3.95;100.00;94076.78;5143060;27;20689;-85
2022/11/22 04:11:43;;;;;;;11.40;8.03;;;;;;;4.05;100.00;94089.28;5140151;27;20206;-85
2022/11/22 04:16:56;;;;;;;10.27;6.80;;;;;;;3.90;100.00;94093.78;5150481;27;20201;-83
2022/11/22 04:19:23;;;;;;;10.10;7.13;;;;;;;3.74;100.00;94078.69;5134269;27;20191;-85
2022/11/22 04:21:48;;;;;;;9.90;6.67;;;;;;;3.82;100.00;94091.38;5141430;27;20202;-84
2022/11/22 04:27:01;;;;;;;16.90;7.30;;;;;;;3.66;100.00;94097.63;5135641;27;20306;-79
2022/11/22 04:29:28;;;;;;;10.70;7.70;;;;;;;3.64;100.00;94088.50;5134311;27;20194;-78
2022/11/22 04:34:40;;;;;;;19.80;12.83;;;;;;;3.81;100.00;94106.00;5131302;27;20187;-78
2022/11/22 04:37:07;;;;;;;22.30;14.27;;;;;;;3.84;100.00;94110.75;5134521;27;20191;-79
2022/11/22 04:39:35;;;;;;;27.00;16.27;;;;;;;3.83;100.00;94118.66;5131184;27;20195;-79
2022/11/22 04:44:47;;;;;;;25.10;16.53;;;;;;;3.90;100.00;94114.34;5133835;27;20320;-78
2022/11/22 04:47:57;;;;;;;26.57;17.37;;;;;;;3.78;100.00;94105.59;5135297;27;20198;-79
2022/11/22 04:52:52;;;;;;;24.83;16.90;;;;;;;3.86;100.00;94118.28;5134334;27;20275;-79
2022/11/22 04:52:54;;;;;;;26.27;16.73;;;;;;;3.90;100.00;94129.75;5133441;27;20199;-79
2022/11/22 04:55:23;;;;;;;23.57;15.90;;;;;;;3.77;100.00;94117.66;5130108;27;20937;-79
2022/11/22 04:57:50;;;;;;;26.97;16.77;;;;;;;3.74;100.00;94137.78;5133399;27;20202;-79
2022/11/22 05:00:17;;;;;;;29.13;17.93;;;;;;;3.71;100.00;94133.00;5132010;27;20199;-79
2022/11/22 05:02:44;;;;;;;26.43;17.03;;;;;;;3.77;100.00;94145.09;5131160;27;20192;-80
2022/11/22 05:05:11;;;;;;;26.40;15.63;;;;;;;3.67;100.00;94134.38;5130559;27;20203;-77
2022/11/22 05:07:38;;;;;;;24.93;14.83;;;;;;;3.70;100.00;94151.97;5135628;27;20218;-78
2022/11/22 05:10:06;;;;;;;21.70;14.73;;;;;;;3.68;100.00;94153.94;5133956;27;20196;-79
2022/11/22 05:12:34;;;;;;;22.27;15.87;;;;;;;3.66;100.00;94150.78;5131530;27;20599;-78
2022/11/22 05:15:01;;;;;;;23.27;14.30;;;;;;;3.64;100.00;94147.59;5134322;27;20617;-78
2022/11/22 05:17:27;;;;;;;20.77;14.13;;;;;;;3.62;100.00;94145.22;5130471;27;20637;-77
2022/11/22 05:19:54;;;;;;;20.57;13.30;;;;;;;3.64;100.00;94152.72;5134380;27;20202;-79
2022/11/22 05:23:53;;;;;;;19.40;13.33;;;;;;;3.66;100.00;94146.44;5130174;27;20206;-79
2022/11/22 05:25:08;;;;;;;28.47;19.23;;;;;;;3.68;100.00;94141.09;5135312;27;20334;-80
2022/11/22 05:27:36;;;;;;;39.17;27.60;;;;;;;3.64;100.00;94132.16;5136057;27;20206;-81
2022/11/22 05:30:05;;;;;;;49.43;29.80;;;;;;;3.73;100.00;94142.13;5140067;27;20658;-79
2022/11/22 05:32:31;;;;;;;54.33;33.17;;;;;;;3.73;100.00;94141.31;5141657;27;20195;-80
2022/11/22 05:34:58;;;;;;;56.73;36.80;;;;;;;3.72;100.00;94137.19;5135895;27;20215;-80
2022/11/22 05:37:25;;;;;;;64.17;39.97;;;;;;;3.66;100.00;94138.72;5136134;27;20199;-80
2022/11/22 05:39:52;;;;;;;71.50;43.57;;;;;;;3.68;100.00;94147.03;5129855;27;20285;-76
2022/11/22 05:42:19;;;;;;;115.10;61.77;;;;;;;3.68;100.00;94148.81;5130577;27;20279;-77
2022/11/22 05:44:47;;;;;;;160.83;86.60;;;;;;;3.68;100.00;94146.25;5132434;27;20218;-77
2022/11/22 05:47:14;;;;;;;161.17;85.90;;;;;;;3.77;100.00;94145.09;5129732;27;20285;-77
2022/11/22 05:49:44;;;;;;;127.97;70.17;;;;;;;3.79;100.00;94148.28;5129889;27;20238;-78
2022/11/22 05:52:11;;;;;;;131.03;70.53;;;;;;;3.78;100.00;94144.13;5132065;27;20192;-77
2022/11/22 05:54:38;;;;;;;132.57;73.67;;;;;;;3.69;100.00;94148.63;5129721;27;20199;-77
2022/11/22 05:57:05;;;;;;;138.20;77.53;;;;;;;3.70;100.00;94152.78;5131873;27;20191;-77
2022/11/22 05:59:31;;;;;;;132.67;74.47;;;;;;;3.63;100.00;94133.16;5134431;27;20191;-80
2022/11/22 06:02:00;;;;;;;149.37;83.77;;;;;;;3.67;100.00;94140.31;5136652;27;20195;-83
2022/11/22 06:04:29;;;;;;;144.93;81.13;;;;;;;3.67;100.00;94144.63;5141792;27;20198;-83
2022/11/22 06:06:56;;;;;;;151.00;82.33;;;;;;;3.61;100.00;94150.56;5136023;27;20191;-80
2022/11/22 06:09:23;;;;;;;144.53;79.07;;;;;;;3.52;100.00;94149.88;5136786;27;20222;-81
2022/11/22 06:11:49;;;;;;;149.70;79.40;;;;;;;3.60;100.00;94152.31;5120888;27;20222;-81
2022/11/22 06:14:16;;;;;;;147.83;78.93;;;;;;;3.54;100.00;94152.28;5139382;27;20191;-82
2022/11/22 06:16:43;;;;;;;142.57;76.90;;;;;;;3.62;100.00;94152.13;5139986;27;20191;-82
2022/11/22 06:19:11;;;;;;;147.17;79.07;;;;;;;3.76;100.00;94158.94;5135606;27;20684;-82
2022/11/22 06:21:38;;;;;;;60.57;35.90;;;;;;;3.70;100.00;94173.31;5138052;27;20202;-81
2022/11/22 06:24:06;;;;;;;41.33;21.50;;;;;;;3.60;100.00;94147.19;5135687;27;20228;-81
2022/11/22 06:26:33;;;;;;;31.60;19.23;;;;;;;3.54;100.00;94155.63;5143038;27;20199;-82
2022/11/22 06:28:59;;;;;;;25.57;15.37;;;;;;;3.41;100.00;94150.41;5139509;27;20216;-80
2022/11/22 06:31:28;;;;;;;33.97;16.03;;;;;;;3.50;100.00;94149.28;5138812;27;20191;-82
2022/11/22 06:33:56;;;;;;;29.30;17.70;;;;;;;3.58;100.00;94144.00;5136433;27;20218;-81
2022/11/22 06:36:26;;;;;;;32.57;17.30;;;;;;;3.72;100.00;94147.47;5140215;27;20187;-81
2022/11/22 06:38:53;;;;;;;32.43;18.70;;;;;;;3.72;100.00;94150.81;5137418;27;20206;-82
2022/11/22 06:41:21;;;;;;;33.60;20.33;;;;;;;3.90;100.00;94166.53;5137561;27;20648;-82
2022/11/22 06:43:50;;;;;;;35.03;20.80;;;;;;;4.01;100.00;94163.41;5136032;27;20200;-82
2022/11/22 06:46:18;;;;;;;34.63;21.47;;;;;;;4.07;100.00;94169.56;5099883;22;20225;-81
2022/11/22 06:48:46;;;;;;;38.20;21.77;;;;;;;4.11;100.00;94182.84;5047866;28;20222;-81
2022/11/22 06:51:14;;;;;;;30.93;18.33;;;;;;;4.11;100.00;94157.94;5046312;28;20202;-81
2022/11/22 06:53:43;;;;;;;30.73;18.13;;;;;;;4.27;100.00;94177.41;5044235;28;20580;-78
2022/11/22 06:56:12;;;;;;;29.23;18.00;;;;;;;4.29;100.00;94168.53;5042282;28;20207;-79
2022/11/22 06:58:39;;;;;;;30.67;18.27;;;;;;;4.40;100.00;94165.41;5039195;28;20945;-77
2022/11/22 07:01:08;;;;;;;27.83;17.77;;;;;;;4.39;100.00;94148.38;5049247;28;20198;-79
2022/11/22 07:03:35;;;;;;;30.20;18.80;;;;;;;4.52;100.00;94174.16;5045604;28;20194;-77
2022/11/22 07:06:02;;;;;;;27.53;18.33;;;;;;;4.51;100.00;94154.53;5045658;28;20198;-77
2022/11/22 07:08:30;;;;;;;36.10;18.70;;;;;;;4.60;100.00;94165.47;5045707;28;20301;-77
2022/11/22 07:11:03;;;;;;;29.90;18.20;;;;;;;4.56;100.00;94162.47;5042028;28;20206;-77
2022/11/22 07:13:30;;;;;;;22.87;14.93;;;;;;;4.55;100.00;94163.47;5043135;28;20203;-78
2022/11/22 07:15:58;;;;;;;25.83;15.70;;;;;;;4.65;100.00;94160.50;5048551;28;20600;-79
2022/11/22 07:18:26;;;;;;;23.30;14.63;;;;;;;4.67;100.00;94163.72;5044045;28;20191;-78
2022/11/22 07:20:53;;;;;;;25.30;15.70;;;;;;;4.74;100.00;94166.28;5044184;28;20198;-78
2022/11/22 07:23:20;;;;;;;30.93;15.57;;;;;;;4.79;100.00;94169.84;5044737;28;20199;-78
2022/11/22 07:25:48;;;;;;;34.17;17.17;;;;;;;4.86;100.00;94162.94;5046245;28;20201;-78
2022/11/22 07:28:16;;;;;;;30.77;18.97;;;;;;;4.91;100.00;94175.22;5045541;28;20217;-78
2022/11/22 07:30:43;;;;;;;28.57;18.47;;;;;;;5.00;100.00;94158.63;5044171;28;20205;-75
2022/11/22 07:33:10;;;;;;;30.43;17.73;;;;;;;5.06;100.00;94162.97;5040965;28;20203;-75
2022/11/22 07:35:37;;;;;;;32.03;19.00;;;;;;;5.16;100.00;94142.81;5042518;28;20202;-77
2022/11/22 07:38:04;;;;;;;31.87;19.83;;;;;;;5.11;100.00;94140.81;5043980;28;20206;-77
2022/11/22 07:40:31;;;;;;;28.77;18.97;;;;;;;5.12;100.00;94128.72;5046614;28;20719;-76
2022/11/22 07:42:58;;;;;;;20.23;13.13;;;;;;;5.08;100.00;94140.41;5044124;28;20282;-77
2022/11/22 07:45:26;;;;;;;17.43;12.13;;;;;;;5.09;100.00;94124.75;5048318;28;20211;-76
2022/11/22 07:47:53;;;;;;;20.90;13.77;;;;;;;5.22;100.00;94136.06;5066237;28;20267;-79
2022/11/22 07:50:19;;;;;;;21.00;13.07;;;;;;;5.34;100.00;94135.25;5060707;28;20607;-79
2022/11/22 07:52:46;;;;;;;20.03;12.37;;;;;;;5.48;100.00;94138.66;5064803;28;20207;-80
2022/11/22 07:55:13;;;;;;;14.40;10.93;;;;;;;5.59;100.00;94158.66;5066365;28;20205;-78
2022/11/22 07:57:40;;;;;;;16.13;11.17;;;;;;;5.71;100.00;94159.63;5059561;28;20842;-79
2022/11/22 08:00:08;;;;;;;14.80;10.50;;;;;;;5.84;100.00;94167.34;5064979;28;20544;-78
2022/11/22 08:02:36;;;;;;;18.90;10.30;;;;;;;5.89;100.00;94152.09;5069347;28;20223;-79
2022/11/22 08:05:03;;;;;;;14.60;10.23;;;;;;;6.02;100.00;94151.28;5065374;28;20201;-80
2022/11/22 08:07:30;;;;;;;19.30;11.30;;;;;;;6.06;100.00;94137.00;5063698;28;20207;-79
2022/11/22 08:09:57;;;;;;;17.73;10.73;;;;;;;6.11;100.00;94148.28;5064485;28;20629;-78
2022/11/22 08:12:24;;;;;;;13.70;9.83;;;;;;;6.11;100.00;94143.13;5060317;28;20215;-80
2022/11/22 08:14:50;;;;;;;17.50;9.87;;;;;;;6.11;100.00;94132.81;5061632;28;20205;-80
2022/11/22 08:17:17;;;;;;;14.57;10.27;;;;;;;6.16;100.00;94139.91;5065142;28;20844;-80
2022/11/22 08:19:48;;;;;;;13.40;9.60;;;;;;;6.20;100.00;94147.03;5063591;28;20585;-80
2022/11/22 08:22:14;;;;;;;12.53;9.90;;;;;;;6.23;100.00;94141.47;5061630;28;20249;-81
2022/11/22 08:24:41;;;;;;;13.43;8.80;;;;;;;6.34;100.00;94134.09;5062336;28;20205;-80
2022/11/22 08:27:08;;;;;;;13.23;9.27;;;;;;;6.39;100.00;94129.13;5060905;28;20200;-79
2022/11/22 08:29:35;;;;;;;18.50;10.33;;;;;;;6.51;100.00;94128.28;5062903;28;20753;-78
2022/11/22 08:32:02;;;;;;;13.47;9.43;;;;;;;6.54;100.00;94130.44;5061550;28;20217;-79
2022/11/22 08:34:29;;;;;;;16.60;9.57;;;;;;;6.61;100.00;94125.25;5062542;28;20692;-79
2022/11/22 08:36:57;;;;;;;14.97;10.23;;;;;;;6.71;100.00;94112.69;5060451;28;20211;-79
2022/11/22 08:39:24;;;;;;;14.97;9.57;;;;;;;6.74;100.00;94107.91;5060412;28;20199;-76
2022/11/22 08:41:50;;;;;;;13.67;9.43;;;;;;;6.80;100.00;94107.06;5062097;28;20194;-78
2022/11/22 08:44:17;;;;;;;16.37;9.83;;;;;;;6.97;100.00;94101.41;5061909;28;20199;-79
2022/11/22 08:46:44;;;;;;;21.17;10.97;;;;;;;7.08;100.00;94092.97;5066833;28;20237;-79
2022/11/22 08:49:11;;;;;;;28.87;16.33;;;;;;;7.01;100.00;94098.19;5059302;28;20218;-77
2022/11/22 08:51:43;;;;;;;25.43;16.27;;;;;;;6.98;100.00;94093.47;5063570;28;20201;-78
2022/11/22 08:54:11;;;;;;;26.67;16.43;;;;;;;6.97;100.00;94088.47;5060785;28;20670;-79
2022/11/22 08:56:38;;;;;;;30.37;16.93;;;;;;;7.05;100.00;94089.00;5062873;28;20283;-79
2022/11/22 08:59:05;;;;;;;23.87;14.90;;;;;;;7.03;100.00;94080.69;5062747;28;20242;-78
2022/11/22 09:01:32;;;;;;;24.53;15.20;;;;;;;7.11;100.00;94101.09;5060279;28;20201;-79
2022/11/22 09:03:59;;;;;;;22.87;15.30;;;;;;;7.18;100.00;94096.69;5066330;28;20201;-78
2022/11/22 09:06:26;;;;;;;25.53;15.77;;;;;;;7.21;100.00;94101.44;5069212;28;20254;-78
2022/11/22 09:08:53;;;;;;;24.77;14.70;;;;;;;7.34;100.00;94095.34;5064132;28;20695;-78
2022/11/22 09:11:21;;;;;;;26.00;15.60;;;;;;;7.49;100.00;94088.06;5060967;28;20205;-78
2022/11/22 09:13:48;;;;;;;25.57;15.83;;;;;;;7.58;100.00;94086.00;5060406;28;20198;-77
2022/11/22 09:16:16;;;;;;;28.13;15.20;;;;;;;7.69;100.00;94087.88;5062706;28;20194;-79
2022/11/22 09:18:43;;;;;;;27.00;17.53;;;;;;;7.58;100.00;94079.03;5065173;28;20282;-80
2022/11/22 09:21:15;;;;;;;25.47;17.17;;;;;;;7.76;100.00;94089.38;5044124;28;20194;-80
2022/11/22 09:23:42;;;;;;;27.60;15.80;;;;;;;7.85;100.00;94082.94;5064065;28;20286;-80
2022/11/22 09:26:11;;;;;;;23.50;15.27;;;;;;;7.98;100.00;94082.00;5063344;28;20229;-80
2022/11/22 09:28:39;;;;;;;24.77;15.27;;;;;;;8.11;100.00;94089.59;5063887;28;20194;-80
2022/11/22 09:31:08;;;;;;;25.60;15.03;;;;;;;8.20;100.00;94077.16;5060680;28;20194;-79
2022/11/22 09:33:37;;;;;;;21.83;13.70;;;;;;;8.29;100.00;94074.09;5063497;28;20672;-80
2022/11/22 09:36:06;;;;;;;22.63;13.63;;;;;;;8.32;100.00;94071.06;5061564;28;20197;-80
2022/11/22 09:38:34;;;;;;;24.93;14.10;;;;;;;8.41;99.91;94063.81;5059605;28;20200;-82
2022/11/22 09:41:03;;;;;;;27.20;13.73;;;;;;;8.36;99.89;94066.25;5068415;28;20600;-80
2022/11/22 09:43:42;;;;;;;25.17;14.33;;;;;;;8.39;99.55;94060.66;5061711;28;20222;-81
2022/11/22 09:46:23;;;;;;;19.10;12.93;;;;;;;8.43;99.17;94061.78;5075030;28;20225;-82
2022/11/22 09:49:03;;;;;;;21.47;12.70;;;;;;;8.44;98.71;94060.78;5072314;28;20572;-81
2022/11/22 09:51:37;;;;;;;21.53;13.60;;;;;;;8.37;97.52;94047.13;5065057;28;20200;-79
2022/11/22 09:54:08;;;;;;;19.27;11.90;;;;;;;8.14;98.56;94054.78;5060475;28;20607;-80
2022/11/22 09:56:35;;;;;;;21.83;12.17;;;;;;;8.09;97.47;94052.81;5058326;28;20281;-80
2022/11/22 09:59:06;;;;;;;16.00;11.63;;;;;;;8.03;98.64;94035.56;5072946;28;20194;-78
2022/11/22 10:01:40;;;;;;;16.47;11.33;;;;;;;8.15;98.03;94038.22;5069257;28;20277;-78
2022/11/22 10:04:12;;;;;;;19.10;11.07;;;;;;;8.45;96.86;94041.66;5063158;28;20190;-78
2022/11/22 10:06:41;;;;;;;22.20;11.23;;;;;;;9.42;95.95;94050.72;5066870;28;20264;-79
2022/11/22 10:09:22;;;;;;;16.73;11.47;;;;;;;10.01;90.88;94049.69;5061294;28;20232;-78
2022/11/22 10:11:55;;;;;;;19.30;12.00;;;;;;;11.01;89.22;94044.78;5068641;28;20189;-79
2022/11/22 10:14:32;;;;;;;20.00;13.73;;;;;;;11.90;83.68;94051.59;5065691;28;20190;-80
2022/11/22 10:17:14;;;;;;;14.77;11.23;;;;;;;12.73;80.75;94048.66;5063595;28;20189;-79
2022/11/22 10:19:46;;;;;;;16.27;11.50;;;;;;;13.27;77.95;94046.06;5066167;28;20184;-79
2022/11/22 10:22:14;;;;;;;20.53;11.50;;;;;;;13.39;76.58;94025.81;5065973;28;20186;-78
2022/11/22 10:24:41;;;;;;;19.13;11.90;;;;;;;13.89;76.22;94026.09;5062486;28;20189;-79
2022/11/22 10:27:13;;;;;;;18.47;12.70;;;;;;;14.43;73.72;94026.63;5064709;28;20201;-78
2022/11/22 10:29:47;;;;;;;15.40;11.57;;;;;;;14.71;72.03;94020.97;5063767;28;20202;-78
2022/11/22 10:32:23;;;;;;;18.67;11.50;;;;;;;14.91;71.21;94014.19;5065034;28;20595;-78
2022/11/22 10:35:10;;;;;;;17.17;11.77;;;;;;;15.40;70.75;94017.88;5062347;28;20227;-78
2022/11/22 10:37:49;;;;;;;13.97;11.07;;;;;;;15.89;67.64;94003.16;5063284;28;20186;-78
2022/11/22 10:40:23;;;;;;;15.43;10.67;;;;;;;16.31;65.62;94012.44;5065298;28;20626;-79
2022/11/22 10:43:03;;;;;;;12.57;9.40;;;;;;;16.55;64.22;94010.00;5064672;28;20206;-79
2022/11/22 10:45:35;;;;;;;12.27;9.57;;;;;;;16.43;63.67;94013.69;5070814;28;20220;-77
2022/11/22 10:48:15;;;;;;;18.63;10.67;;;;;;;15.65;65.30;94012.63;5062285;28;20741;-79
2022/11/22 10:50:55;;;;;;;14.53;9.77;;;;;;;14.69;66.66;93996.09;5062259;28;20209;-80
2022/11/22 10:53:32;;;;;;;12.93;9.63;;;;;;;14.01;68.80;93992.72;5062017;28;20188;-79
2022/11/22 10:56:08;;;;;;;24.90;10.30;;;;;;;12.93;72.83;93990.69;5064601;28;20197;-78
2022/11/22 10:58:46;;;;;;;13.60;9.47;;;;;;;12.45;74.64;93978.53;5064557;28;20612;-79
2022/11/22 11:01:23;;;;;;;13.77;9.87;;;;;;;11.87;76.52;93987.78;5065919;28;20182;-79
2022/11/22 11:03:56;;;;;;;13.73;9.50;;;;;;;11.00;79.98;93984.19;5065600;28;20773;-79
2022/11/22 11:06:26;;;;;;;16.53;10.37;;;;;;;10.90;80.25;93981.44;5060447;28;20231;-80
2022/11/22 11:08:57;;;;;;;17.63;9.77;;;;;;;10.65;81.58;93979.22;5064455;28;20251;-79
2022/11/22 11:11:29;;;;;;;16.03;9.77;;;;;;;10.40;83.07;93972.78;5064127;28;20540;-81
2022/11/22 11:14:01;;;;;;;13.10;8.37;;;;;;;10.21;83.83;93962.63;5065314;28;20913;-79
2022/11/22 11:16:31;;;;;;;11.67;8.67;;;;;;;10.26;84.90;93967.09;5071235;28;20207;-79
2022/11/22 11:19:16;;;;;;;13.73;8.63;;;;;;;9.99;85.03;93972.03;5062318;28;20191;-79
2022/11/22 11:21:43;;;;;;;11.90;8.60;;;;;;;9.94;85.85;93977.13;5059655;28;20727;-80
2022/11/22 11:24:13;;;;;;;11.20;8.13;;;;;;;9.98;85.25;93975.66;5059928;28;20595;-79
2022/11/22 11:26:42;;;;;;;16.33;8.93;;;;;;;9.89;84.63;93964.06;5066784;28;20272;-80
2022/11/22 11:29:33;;;;;;;13.07;9.27;;;;;;;9.86;85.03;93964.50;5063590;28;20197;-79
2022/11/22 11:32:09;;;;;;;13.80;9.03;;;;;;;9.62;86.98;93953.41;5061406;28;20186;-80
2022/11/22 11:34:40;;;;;;;16.93;9.33;;;;;;;9.45;87.55;93936.97;5062387;28;20261;-80
2022/11/22 11:37:22;;;;;;;19.07;10.13;;;;;;;9.50;88.23;93941.47;5060434;28;20185;-79
2022/11/22 11:39:49;;;;;;;15.13;10.23;;;;;;;9.44;88.04;93925.00;5061291;28;20186;-80
2022/11/22 11:42:24;;;;;;;17.93;11.20;;;;;;;9.45;87.91;93943.97;5063386;28;20189;-78